createdAt,value
2022-08-23T00:00:13.926Z,16.26
2022-08-23T00:03:02.617Z,16.27
2022-08-23T00:05:32.896Z,16.28
2022-08-23T00:08:01.147Z,16.27
2022-08-23T00:10:29.291Z,16.28
2022-08-23T00:12:57.230Z,16.28
2022-08-23T00:15:25.474Z,16.28
2022-08-23T00:17:53.346Z,16.30
2022-08-23T00:20:22.539Z,16.31
2022-08-23T00:22:50.818Z,16.30
2022-08-23T00:25:18.788Z,16.28
2022-08-23T00:27:46.886Z,16.26
2022-08-23T00:30:16.673Z,16.24
2022-08-23T00:32:45.741Z,16.25
2022-08-23T00:35:26.574Z,16.26
2022-08-23T00:38:32.054Z,16.28
2022-08-23T00:40:53.000Z,16.28
2022-08-23T00:43:48.596Z,16.29
2022-08-23T00:47:02.362Z,16.28
2022-08-23T00:49:32.348Z,16.26
2022-08-23T00:52:35.588Z,16.24
2022-08-23T00:55:04.647Z,16.24
2022-08-23T00:57:34.167Z,16.22
2022-08-23T01:00:02.022Z,16.21
2022-08-23T01:02:30.101Z,16.21
2022-08-23T01:05:00.449Z,16.21
2022-08-23T01:07:41.539Z,16.20
2022-08-23T01:10:19.920Z,16.17
2022-08-23T01:12:56.386Z,16.15
2022-08-23T01:15:33.105Z,16.14
2022-08-23T01:18:06.478Z,16.15
2022-08-23T01:20:44.022Z,16.14
2022-08-23T01:23:34.267Z,16.16
2022-08-23T01:26:03.086Z,16.15
2022-08-23T01:28:32.070Z,16.17
2022-08-23T01:31:01.206Z,16.18
2022-08-23T01:33:30.401Z,16.17
2022-08-23T01:35:59.173Z,16.20
2022-08-23T01:38:32.896Z,16.21
2022-08-23T01:41:01.583Z,16.22
2022-08-23T01:43:29.762Z,16.21
2022-08-23T01:45:57.627Z,16.23
2022-08-23T01:48:25.538Z,16.25
2022-08-23T01:50:53.330Z,16.27
2022-08-23T01:53:21.836Z,16.29
2022-08-23T01:55:51.890Z,16.31
2022-08-23T01:58:21.551Z,16.31
2022-08-23T02:00:49.516Z,16.31
2022-08-23T02:03:17.391Z,16.32
2022-08-23T02:05:45.871Z,16.33
2022-08-23T02:08:33.950Z,16.34
2022-08-23T02:11:12.743Z,16.36
2022-08-23T02:13:42.580Z,16.37
2022-08-23T02:16:14.937Z,16.38
2022-08-23T02:18:44.623Z,16.38
2022-08-23T02:21:13.062Z,16.41
2022-08-23T02:23:41.054Z,16.40
2022-08-23T02:26:09.131Z,16.41
2022-08-23T02:28:37.511Z,16.42
2022-08-23T02:31:06.959Z,16.44
2022-08-23T02:33:38.127Z,16.45
2022-08-23T02:36:06.423Z,16.46
2022-08-23T02:38:35.661Z,16.46
2022-08-23T02:41:03.991Z,16.48
2022-08-23T02:43:38.265Z,16.49
2022-08-23T02:46:09.083Z,16.50
2022-08-23T02:48:39.243Z,16.51
2022-08-23T02:51:10.093Z,16.51
2022-08-23T02:53:39.462Z,16.52
2022-08-23T02:56:13.082Z,16.52
2022-08-23T02:58:54.238Z,16.52
2022-08-23T03:01:30.606Z,16.50
2022-08-23T03:04:04.735Z,16.50
2022-08-23T03:06:33.138Z,16.51
2022-08-23T03:09:01.162Z,16.50
2022-08-23T03:11:29.683Z,16.50
2022-08-23T03:13:58.281Z,16.50
2022-08-23T03:16:28.727Z,16.50
2022-08-23T03:18:57.407Z,16.47
2022-08-23T03:21:25.181Z,16.48
2022-08-23T03:23:55.040Z,16.47
2022-08-23T03:26:26.844Z,16.46
2022-08-23T03:28:56.713Z,16.46
2022-08-23T03:31:26.962Z,16.45
2022-08-23T03:34:06.637Z,16.45
2022-08-23T03:36:35.630Z,16.44
2022-08-23T03:39:06.037Z,16.44
2022-08-23T03:41:35.099Z,16.45
2022-08-23T03:44:04.977Z,16.48
2022-08-23T03:46:35.890Z,16.47
2022-08-23T03:49:08.433Z,16.47
2022-08-23T03:51:50.081Z,16.46
2022-08-23T03:54:19.188Z,16.47
2022-08-23T03:57:00.222Z,16.47
2022-08-23T03:59:35.067Z,16.47
2022-08-23T04:02:05.749Z,16.47
2022-08-23T04:04:34.602Z,16.47
2022-08-23T04:07:33.069Z,16.48
2022-08-23T04:10:01.773Z,16.48
2022-08-23T04:12:33.807Z,16.49
2022-08-23T04:15:03.506Z,16.51
2022-08-23T04:17:33.448Z,16.52
2022-08-23T04:20:03.918Z,16.52
2022-08-23T04:22:33.729Z,16.53
2022-08-23T04:25:05.316Z,16.53
2022-08-23T04:27:54.034Z,16.54
2022-08-23T04:30:24.059Z,16.55
2022-08-23T04:32:52.285Z,16.56
2022-08-23T04:35:20.689Z,16.58
2022-08-23T04:37:49.742Z,16.59
2022-08-23T04:40:36.580Z,16.61
2022-08-23T04:43:06.711Z,16.62
2022-08-23T04:45:38.886Z,16.62
2022-08-23T04:48:12.167Z,16.62
2022-08-23T04:50:41.728Z,16.63
2022-08-23T04:53:17.081Z,16.60
2022-08-23T04:55:56.358Z,16.60
2022-08-23T04:58:24.308Z,16.59
2022-08-23T05:00:53.568Z,16.60
2022-08-23T05:03:29.898Z,16.60
2022-08-23T05:05:59.138Z,16.60
2022-08-23T05:08:34.062Z,16.60
2022-08-23T05:11:05.598Z,16.60
2022-08-23T05:13:35.140Z,16.62
2022-08-23T05:16:06.339Z,16.62
2022-08-23T05:18:37.324Z,16.64
2022-08-23T05:21:06.461Z,16.65
2022-08-23T05:23:34.659Z,16.66
2022-08-23T05:26:07.470Z,16.67
2022-08-23T05:28:42.339Z,16.68
2022-08-23T05:31:14.886Z,16.71
2022-08-23T05:33:51.497Z,16.74
2022-08-23T05:36:25.848Z,16.78
2022-08-23T05:38:54.393Z,16.78
2022-08-23T05:41:33.373Z,16.80
2022-08-23T05:44:10.611Z,16.84
2022-08-23T05:46:42.368Z,16.86
2022-08-23T05:49:29.350Z,16.90
2022-08-23T05:51:57.657Z,16.93
2022-08-23T05:54:28.562Z,16.90
2022-08-23T05:57:15.562Z,16.88
2022-08-23T05:59:45.691Z,16.87
2022-08-23T06:02:13.557Z,16.87
2022-08-23T06:04:41.714Z,16.85
2022-08-23T06:07:11.330Z,16.83
2022-08-23T06:09:39.765Z,16.81
2022-08-23T06:12:11.364Z,16.82
2022-08-23T06:14:40.215Z,16.85
2022-08-23T06:17:08.784Z,16.82
2022-08-23T06:19:39.214Z,16.81
2022-08-23T06:22:26.057Z,16.91
2022-08-23T06:24:54.310Z,17.00
2022-08-23T06:27:35.679Z,17.07
2022-08-23T06:30:04.038Z,17.10
2022-08-23T06:32:32.306Z,17.15
2022-08-23T06:35:38.031Z,17.20
2022-08-23T06:38:13.200Z,17.22
2022-08-23T06:40:47.475Z,17.22
2022-08-23T06:43:29.588Z,17.20
2022-08-23T06:46:23.489Z,17.23
2022-08-23T06:48:53.729Z,17.28
2022-08-23T06:51:30.345Z,17.29
2022-08-23T06:54:22.564Z,17.32
2022-08-23T06:57:10.455Z,17.36
2022-08-23T06:59:57.354Z,17.43
2022-08-23T07:02:38.254Z,17.51
2022-08-23T07:05:25.419Z,17.57
2022-08-23T07:08:10.034Z,17.64
2022-08-23T07:10:38.341Z,17.70
2022-08-23T07:13:06.464Z,17.76
2022-08-23T07:15:35.571Z,17.78
2022-08-23T07:18:05.712Z,17.88
2022-08-23T07:20:41.549Z,18.00
2022-08-23T07:23:10.316Z,18.18
2022-08-23T07:25:43.208Z,18.28
2022-08-23T07:28:14.345Z,18.43
2022-08-23T07:30:45.580Z,18.64
2022-08-23T07:33:16.408Z,18.71
2022-08-23T07:36:52.750Z,19.00
2022-08-23T07:39:22.546Z,19.16
2022-08-23T07:41:52.898Z,19.34
2022-08-23T07:44:27.087Z,19.48
2022-08-23T07:46:56.378Z,19.59
2022-08-23T07:49:29.346Z,19.83
2022-08-23T07:51:59.072Z,20.13
2022-08-23T07:54:29.364Z,20.40
2022-08-23T07:57:10.739Z,20.51
2022-08-23T07:59:57.994Z,20.61
2022-08-23T08:02:45.414Z,20.59
2022-08-23T08:05:32.178Z,20.40
2022-08-23T08:08:02.025Z,20.31
2022-08-23T08:10:30.417Z,20.34
2022-08-23T08:12:58.840Z,20.45
2022-08-23T08:15:27.315Z,20.53
2022-08-23T08:28:31.790Z,20.19
2022-08-23T08:30:59.001Z,19.97
2022-08-23T08:33:27.539Z,19.99
2022-08-23T08:36:01.782Z,20.15
2022-08-23T08:38:30.637Z,20.38
2022-08-23T08:41:10.177Z,20.49
2022-08-23T08:44:02.056Z,20.65
2022-08-23T08:46:36.168Z,20.81
2022-08-23T08:49:07.162Z,20.92
2022-08-23T08:51:43.696Z,21.02
2022-08-23T08:54:18.985Z,20.99
2022-08-23T08:56:53.012Z,20.78
2022-08-23T08:59:58.923Z,20.54
2022-08-23T09:02:33.347Z,20.10
2022-08-23T09:05:11.787Z,19.77
2022-08-23T09:08:07.110Z,19.59
2022-08-23T09:10:53.618Z,19.50
2022-08-23T09:13:56.024Z,19.39
2022-08-23T09:16:50.063Z,19.30
2022-08-23T09:19:18.837Z,19.40
2022-08-23T09:21:48.794Z,19.54
2022-08-23T09:24:16.561Z,19.69
2022-08-23T09:27:04.745Z,19.81
2022-08-23T09:29:37.242Z,19.86
2022-08-23T09:32:25.319Z,19.91
2022-08-23T09:34:51.975Z,20.02
2022-08-23T09:37:24.200Z,20.12
2022-08-23T09:40:12.303Z,20.23
2022-08-23T09:42:40.717Z,20.41
2022-08-23T09:48:46.045Z,20.65
2022-08-23T09:51:22.703Z,20.66
2022-08-23T09:54:06.018Z,20.71
2022-08-23T09:56:41.396Z,20.84
2022-08-23T09:59:27.722Z,20.91
2022-08-23T10:02:02.290Z,21.08
2022-08-23T10:04:42.073Z,21.29
2022-08-23T10:07:33.352Z,21.38
2022-08-23T10:10:21.073Z,21.50
2022-08-23T10:12:50.041Z,21.65
2022-08-23T10:15:25.619Z,21.75
2022-08-23T10:18:03.547Z,21.80
2022-08-23T10:20:47.003Z,21.80
2022-08-23T10:23:20.958Z,21.87
2022-08-23T10:26:00.601Z,22.06
2022-08-23T10:29:09.954Z,22.18
2022-08-23T10:32:18.212Z,22.46
2022-08-23T10:34:58.657Z,22.67
2022-08-23T10:37:56.022Z,22.66
2022-08-23T10:40:30.600Z,22.67
2022-08-23T10:43:26.384Z,22.61
2022-08-23T10:46:00.831Z,22.47
2022-08-23T10:48:49.065Z,22.36
2022-08-23T10:51:31.812Z,22.29
2022-08-23T10:54:08.153Z,22.24
2022-08-23T10:56:44.334Z,22.12
2022-08-23T10:59:21.446Z,22.05
2022-08-23T11:02:00.123Z,22.00
2022-08-23T11:05:01.169Z,22.04
2022-08-23T11:07:43.570Z,22.24
2022-08-23T11:10:36.248Z,22.40
2022-08-23T11:13:06.961Z,22.65
2022-08-23T11:16:01.036Z,22.67
2022-08-23T11:18:48.807Z,22.46
2022-08-23T11:23:54.815Z,22.13
2022-08-23T11:26:23.471Z,21.81
2022-08-23T11:29:22.212Z,21.67
2022-08-23T11:32:29.358Z,21.63
2022-08-23T11:35:12.737Z,21.47
2022-08-23T11:37:50.600Z,21.29
2022-08-23T12:02:47.552Z,20.72
2022-08-23T12:05:22.078Z,20.71
2022-08-23T12:08:17.003Z,20.72
2022-08-23T12:10:45.921Z,20.81
2022-08-23T12:13:22.596Z,20.86
2022-08-23T12:16:17.100Z,20.95
2022-08-23T12:18:54.259Z,21.00
2022-08-23T12:21:38.585Z,21.06
2022-08-23T12:24:33.164Z,21.08
2022-08-23T12:27:08.029Z,21.14
2022-08-23T12:29:54.962Z,21.22
2022-08-23T12:32:49.705Z,21.36
2022-08-23T12:35:25.472Z,21.32
2022-08-23T12:38:14.985Z,21.22
2022-08-23T12:40:44.965Z,21.24
2022-08-23T12:43:22.541Z,21.30
2022-08-23T12:46:01.796Z,21.26
2022-08-23T12:48:45.416Z,21.22
2022-08-23T12:51:13.106Z,21.25
2022-08-23T12:53:45.174Z,21.23
2022-08-23T12:56:22.232Z,21.19
2022-08-23T12:59:07.069Z,21.10
2022-08-23T13:01:36.859Z,20.99
2022-08-23T13:04:08.889Z,20.91
2022-08-23T13:14:44.206Z,20.57
2022-08-23T13:17:26.041Z,20.38
2022-08-23T13:20:01.993Z,20.31
2022-08-23T13:22:37.770Z,20.25
2022-08-23T13:25:35.670Z,20.20
2022-08-23T13:28:22.476Z,20.20
2022-08-23T13:31:03.440Z,20.07
2022-08-23T13:33:31.075Z,20.04
2022-08-23T13:36:22.751Z,20.04
2022-08-23T13:38:49.766Z,20.03
2022-08-23T13:41:38.827Z,19.99
2022-08-23T13:44:08.231Z,19.95
2022-08-23T13:46:44.244Z,19.95
2022-08-23T13:49:19.348Z,19.94
2022-08-23T13:52:11.936Z,19.92
2022-08-23T13:54:51.292Z,19.85
2022-08-23T13:57:21.714Z,19.90
2022-08-23T13:59:59.386Z,19.88
2022-08-23T14:02:30.571Z,19.92
2022-08-23T14:04:58.189Z,19.99
2022-08-23T14:07:24.775Z,20.12
2022-08-23T14:09:54.928Z,20.21
2022-08-23T14:12:27.540Z,20.27
2022-08-23T14:14:58.742Z,20.28
2022-08-23T14:17:25.996Z,20.32
2022-08-23T14:20:43.795Z,20.30
2022-08-23T14:23:11.627Z,20.33
2022-08-23T14:25:39.380Z,20.35
2022-08-23T14:28:05.986Z,20.34
2022-08-23T14:30:36.129Z,20.34
2022-08-23T14:33:03.992Z,20.37
2022-08-23T14:35:31.537Z,20.40
2022-08-23T14:38:03.341Z,20.45
2022-08-23T14:40:31.108Z,20.49
2022-08-23T14:42:58.112Z,20.57
2022-08-23T14:45:25.618Z,20.51
2022-08-23T14:47:52.589Z,20.48
2022-08-23T14:50:21.640Z,20.46
2022-08-23T14:52:48.178Z,20.43
2022-08-23T14:55:21.046Z,20.41
2022-08-23T14:57:51.189Z,20.44
2022-08-23T15:00:20.569Z,20.45
2022-08-23T15:02:49.689Z,20.45
2022-08-23T15:05:17.005Z,20.46
2022-08-23T15:07:44.881Z,20.40
2022-08-23T15:10:49.764Z,20.38
2022-08-23T15:13:20.368Z,20.28
2022-08-23T15:15:49.893Z,20.26
2022-08-23T15:18:17.657Z,20.19
2022-08-23T15:20:45.447Z,20.12
2022-08-23T15:23:13.001Z,20.07
2022-08-23T15:25:41.772Z,20.07
2022-08-23T15:28:13.216Z,20.07
2022-08-23T15:30:42.128Z,20.07
2022-08-23T15:33:10.618Z,20.11
2022-08-23T15:35:45.789Z,20.11
2022-08-23T15:38:14.387Z,20.06
2022-08-23T15:40:43.723Z,20.02
2022-08-23T15:43:12.069Z,19.95
2022-08-23T15:45:39.030Z,19.93
2022-08-23T15:48:30.505Z,19.89
2022-08-23T15:50:58.646Z,19.88
2022-08-23T15:53:27.359Z,19.91
2022-08-23T15:55:54.430Z,19.97
2022-08-23T15:58:24.824Z,19.98
2022-08-23T16:00:53.881Z,19.95
2022-08-23T16:03:22.561Z,19.92
2022-08-23T16:05:53.093Z,19.93
2022-08-23T16:08:27.099Z,19.94
2022-08-23T16:10:55.358Z,20.00
2022-08-23T16:13:27.263Z,20.02
2022-08-23T16:15:54.425Z,20.07
2022-08-23T16:18:22.725Z,20.17
2022-08-23T16:20:54.585Z,20.22
2022-08-23T16:23:25.877Z,20.24
2022-08-23T16:25:52.867Z,20.28
2022-08-23T16:28:19.833Z,20.35
2022-08-23T16:30:47.455Z,20.40
2022-08-23T16:33:14.047Z,20.47
2022-08-23T16:35:40.947Z,20.54
2022-08-23T16:38:08.825Z,20.61
2022-08-23T16:40:35.881Z,20.60
2022-08-23T16:43:02.996Z,20.58
2022-08-23T16:45:29.616Z,20.57
2022-08-23T16:47:56.341Z,20.55
2022-08-23T16:50:23.455Z,20.56
2022-08-23T16:52:50.865Z,20.64
2022-08-23T16:55:18.640Z,20.69
2022-08-23T16:57:46.402Z,20.73
2022-08-23T17:00:14.917Z,20.78
2022-08-23T17:02:43.341Z,20.79
2022-08-23T17:05:14.793Z,20.76
2022-08-23T17:07:42.666Z,20.71
2022-08-23T17:10:12.947Z,20.67
2022-08-23T17:12:57.319Z,20.63
2022-08-23T17:15:26.209Z,20.59
2022-08-23T17:17:54.967Z,20.57
2022-08-23T17:20:24.693Z,20.53
2022-08-23T17:22:53.979Z,20.49
2022-08-23T17:25:24.122Z,20.45
2022-08-23T17:27:53.909Z,20.42
2022-08-23T17:30:24.420Z,20.40
2022-08-23T17:32:52.994Z,20.37
2022-08-23T17:35:23.900Z,20.34
2022-08-23T17:38:01.689Z,20.32
2022-08-23T17:40:43.229Z,20.29
2022-08-23T17:43:11.939Z,20.29
2022-08-23T17:45:45.886Z,20.27
2022-08-23T17:48:16.147Z,20.25
2022-08-23T17:50:47.921Z,20.24
2022-08-23T17:53:17.919Z,20.21
2022-08-23T17:55:44.514Z,20.19
2022-08-23T17:58:13.676Z,20.16
2022-08-23T18:00:40.537Z,20.12
2022-08-23T18:03:07.223Z,20.09
2022-08-23T18:05:37.169Z,20.05
2022-08-23T18:08:07.959Z,20.01
2022-08-23T18:10:35.529Z,20.00
2022-08-23T18:13:02.702Z,20.01
2022-08-23T18:15:37.153Z,20.00
2022-08-23T18:18:03.681Z,20.00
2022-08-23T18:20:31.051Z,20.00
2022-08-23T18:23:55.906Z,20.06
2022-08-23T18:26:43.750Z,20.07
2022-08-23T18:29:17.021Z,20.03
2022-08-23T18:31:45.439Z,19.95
2022-08-23T18:34:20.377Z,19.99
2022-08-23T18:36:48.932Z,20.31
2022-08-23T18:39:16.929Z,20.55
2022-08-23T18:42:05.729Z,20.75
2022-08-23T18:44:34.035Z,20.91
2022-08-23T18:47:03.732Z,21.12
2022-08-23T18:49:34.142Z,21.27
2022-08-23T18:52:06.928Z,21.38
2022-08-23T18:54:34.766Z,21.24
2022-08-23T18:57:03.698Z,21.08
2022-08-23T18:59:32.393Z,20.95
2022-08-23T19:02:00.497Z,20.83
2022-08-23T19:04:30.324Z,20.75
2022-08-23T19:06:58.628Z,20.79
2022-08-23T19:09:28.096Z,20.86
2022-08-23T19:11:56.800Z,20.76
2022-08-23T19:14:24.821Z,20.68
2022-08-23T19:16:52.766Z,20.60
2022-08-23T19:19:23.207Z,20.54
2022-08-23T19:21:51.096Z,20.50
2022-08-23T19:24:19.328Z,20.41
2022-08-23T19:26:48.798Z,20.30
2022-08-23T19:29:18.729Z,20.25
2022-08-23T19:31:48.871Z,20.21
2022-08-23T19:34:18.772Z,20.21
2022-08-23T19:36:51.266Z,20.21
2022-08-23T19:39:27.787Z,20.18
2022-08-23T19:41:58.795Z,20.13
2022-08-23T19:44:28.310Z,20.08
2022-08-23T19:46:56.976Z,20.12
2022-08-23T19:49:25.273Z,20.11
2022-08-23T19:51:53.479Z,20.08
2022-08-23T19:54:23.137Z,20.06
2022-08-23T19:56:57.635Z,20.05
2022-08-23T19:59:33.085Z,20.03
2022-08-23T20:02:02.861Z,20.01
2022-08-23T20:04:33.039Z,19.98
2022-08-23T20:07:02.857Z,19.98
2022-08-23T20:09:32.132Z,20.01
2022-08-23T20:12:01.118Z,20.03
2022-08-23T20:14:33.946Z,20.10
2022-08-23T20:17:04.528Z,20.21
2022-08-23T20:19:32.891Z,20.33
2022-08-23T20:22:20.581Z,20.52
2022-08-23T20:24:52.621Z,20.67
2022-08-23T20:27:24.525Z,20.84
2022-08-23T20:30:06.588Z,20.91
2022-08-23T20:32:36.224Z,20.81
2022-08-23T20:35:14.839Z,20.68
2022-08-23T20:37:53.395Z,20.55
2022-08-23T20:40:21.971Z,20.47
2022-08-23T20:42:51.635Z,20.40
2022-08-23T20:45:20.823Z,20.33
2022-08-23T20:47:49.087Z,20.26
2022-08-23T20:50:18.512Z,20.19
2022-08-23T20:52:48.313Z,20.13
2022-08-23T20:55:17.396Z,20.08
2022-08-23T20:57:54.111Z,20.03
2022-08-23T21:00:22.852Z,19.99
2022-08-23T21:02:52.301Z,19.95
2022-08-23T21:05:21.739Z,19.92
2022-08-23T21:07:53.051Z,19.89
2022-08-23T21:10:21.674Z,19.87
2022-08-23T21:12:51.145Z,19.84
2022-08-23T21:15:22.945Z,19.81
2022-08-23T21:17:51.948Z,19.78
2022-08-23T21:20:20.223Z,19.76
2022-08-23T21:22:48.661Z,19.74
2022-08-23T21:25:17.514Z,19.72
2022-08-23T21:27:45.688Z,19.71
2022-08-23T21:30:15.624Z,19.69
2022-08-23T21:32:45.869Z,19.68
2022-08-23T21:35:14.588Z,19.66
2022-08-23T21:37:43.273Z,19.64
2022-08-23T21:40:13.215Z,19.62
2022-08-23T21:42:42.233Z,19.58
2022-08-23T21:45:10.301Z,19.56
2022-08-23T21:47:38.688Z,19.54
2022-08-23T21:50:07.241Z,19.53
2022-08-23T21:52:35.595Z,19.51
2022-08-23T21:55:04.876Z,19.49
2022-08-23T21:57:33.997Z,19.48
2022-08-23T22:00:19.049Z,19.47
2022-08-23T22:02:47.886Z,19.46
2022-08-23T22:05:17.271Z,19.45
2022-08-23T22:07:46.257Z,19.45
2022-08-23T22:10:14.682Z,19.46
2022-08-23T22:12:43.581Z,19.46
2022-08-23T22:15:11.658Z,19.46
2022-08-23T22:17:40.005Z,19.46
2022-08-23T22:20:13.627Z,19.46
2022-08-23T22:22:42.892Z,19.46
2022-08-23T22:25:12.718Z,19.46
2022-08-23T22:27:40.976Z,19.46
2022-08-23T22:30:09.566Z,19.45
2022-08-23T22:32:38.615Z,19.43
2022-08-23T22:35:08.981Z,19.43
2022-08-23T22:37:49.384Z,19.41
2022-08-23T22:40:27.601Z,19.40
2022-08-23T22:42:56.445Z,19.37
2022-08-23T22:45:24.866Z,19.36
2022-08-23T22:47:54.328Z,19.34
2022-08-23T22:50:24.174Z,19.34
2022-08-23T22:52:52.482Z,19.32
2022-08-23T22:55:22.067Z,19.31
2022-08-23T22:57:50.855Z,19.30
2022-08-23T23:00:19.932Z,19.28
2022-08-23T23:02:48.012Z,19.25
2022-08-23T23:05:15.935Z,19.23
2022-08-23T23:08:02.923Z,19.22
2022-08-23T23:10:31.731Z,19.20
2022-08-23T23:12:59.962Z,19.18
2022-08-23T23:15:28.016Z,19.18
2022-08-23T23:17:59.417Z,19.18
2022-08-23T23:20:42.996Z,19.17
2022-08-23T23:23:18.201Z,19.16
2022-08-23T23:25:48.046Z,19.15
2022-08-23T23:28:18.102Z,19.12
2022-08-23T23:30:48.664Z,19.09
2022-08-23T23:33:22.495Z,19.05
2022-08-23T23:35:55.234Z,19.02
2022-08-23T23:38:23.409Z,19.01
2022-08-23T23:40:52.264Z,19.01
2022-08-23T23:43:20.545Z,19.00
2022-08-23T23:45:49.532Z,19.01
2022-08-23T23:48:20.446Z,19.02
2022-08-23T23:50:50.060Z,19.04
2022-08-23T23:53:20.698Z,19.06
2022-08-23T23:55:51.263Z,19.09
2022-08-23T23:58:22.036Z,19.12
